Time;durP1;ratioP1;P1;durP2;ratioP2;P2;SDS_P1;SDS_P2;PMS_P1;PMS_P2;Temp;Humidity;BMP_temperature;BMP_pressure;BME280_temperature;BME280_humidity;BME280_pressure;Samples;Min_cycle;Max_cycle;Signal;HPM_P1;HPM_P2
2022/03/17 00:01:36;;;;;;;9.07;3.55;;;11.80;99.90;;;;;;20618968;28;20526;-47
2022/03/17 00:11:37;;;;;;;11.55;4.15;;;11.80;99.90;;;;;;20619152;28;20055;-47
2022/03/17 00:21:39;;;;;;;10.23;4.45;;;11.70;99.90;;;;;;20629321;28;20046;-47
2022/03/17 00:31:40;;;;;;;10.25;4.25;;;11.70;99.90;;;;;;20649349;28;20130;-47
2022/03/17 00:41:43;;;;;;;8.50;3.88;;;11.70;99.90;;;;;;20632329;28;20124;-47
2022/03/17 00:51:45;;;;;;;12.70;4.32;;;11.70;99.90;;;;;;20624943;28;20053;-46
2022/03/17 01:01:46;;;;;;;10.43;3.88;;;11.60;99.90;;;;;;20620774;28;20042;-47
2022/03/17 01:11:47;;;;;;;13.13;4.35;;;11.60;99.90;;;;;;20625626;28;20065;-47
2022/03/17 01:21:50;;;;;;;9.43;4.10;;;11.70;99.90;;;;;;20616452;28;20038;-47
2022/03/17 01:31:51;;;;;;;17.42;4.95;;;11.70;99.90;;;;;;20620760;28;20077;-47
2022/03/17 01:41:59;;;;;;;10.25;4.38;;;11.70;99.90;;;;;;20616874;28;20033;-47
2022/03/17 01:52:00;;;;;;;10.23;4.45;;;11.90;99.90;;;;;;20595561;28;22369;-47
2022/03/17 02:02:04;;;;;;;13.90;6.55;;;11.90;99.90;;;;;;20611963;28;20031;-47
2022/03/17 02:22:28;;;;;;;13.68;5.43;;;11.60;99.90;;;;;;20614640;28;20054;-47
2022/03/17 02:32:30;;;;;;;13.30;5.80;;;11.20;99.90;;;;;;20599716;28;20497;-47
2022/03/17 02:42:31;;;;;;;7.68;4.47;;;11.10;99.90;;;;;;20627699;28;20054;-47
2022/03/17 02:52:32;;;;;;;4.43;1.70;;;10.90;99.90;;;;;;20665622;28;20054;-47
2022/03/17 03:02:33;;;;;;;3.08;1.30;;;10.70;99.90;;;;;;20671412;28;20131;-46
2022/03/17 03:12:35;;;;;;;7.53;1.80;;;10.00;99.90;;;;;;20624666;28;20042;-46
2022/03/17 03:22:39;;;;;;;2.60;1.13;;;9.70;99.90;;;;;;20613149;28;20046;-46
2022/03/17 03:32:43;;;;;;;3.13;1.30;;;9.50;99.90;;;;;;20593300;28;20122;-46
2022/03/17 03:42:44;;;;;;;3.00;1.73;;;9.40;99.90;;;;;;20579564;28;20042;-47
2022/03/17 03:52:46;;;;;;;6.68;2.47;;;9.20;99.90;;;;;;20581903;28;20130;-46
2022/03/17 04:02:47;;;;;;;3.78;2.03;;;9.10;99.90;;;;;;20586765;28;20050;-46
2022/03/17 04:12:48;;;;;;;8.48;3.03;;;9.10;99.90;;;;;;20583026;28;20046;-46
2022/03/17 04:22:50;;;;;;;16.33;1.55;;;9.10;99.90;;;;;;20585493;28;20046;-46
2022/03/17 04:32:51;;;;;;;6.95;1.10;;;9.00;99.90;;;;;;20578734;28;20051;-46
2022/03/17 04:42:55;;;;;;;9.15;1.05;;;8.90;99.90;;;;;;20594307;28;20054;-47
2022/03/17 05:03:16;;;;;;;7.88;0.90;;;8.90;99.90;;;;;;20602401;28;20050;-47
2022/03/17 05:13:18;;;;;;;1.50;0.30;;;8.70;99.90;;;;;;20586839;28;20051;-47
2022/03/17 05:23:20;;;;;;;1.50;0.52;;;8.70;99.90;;;;;;20583933;28;20042;-46
2022/03/17 05:33:21;;;;;;;1.13;0.45;;;8.70;99.90;;;;;;20592314;28;20402;-46
2022/03/17 05:43:24;;;;;;;1.40;0.32;;;8.60;99.90;;;;;;20598270;28;20050;-46
2022/03/17 05:53:25;;;;;;;3.80;0.60;;;8.50;99.90;;;;;;20596907;28;20632;-46
2022/03/17 06:03:26;;;;;;;1.52;0.50;;;8.50;99.90;;;;;;20603348;28;20046;-46
2022/03/17 06:13:29;;;;;;;3.53;0.70;;;8.40;99.90;;;;;;20586507;28;20042;-47
2022/03/17 06:23:31;;;;;;;8.18;0.80;;;8.40;99.90;;;;;;20577816;28;20161;-47
2022/03/17 06:33:32;;;;;;;1.75;0.47;;;8.50;99.90;;;;;;20579771;28;20054;-46
2022/03/17 06:43:33;;;;;;;4.05;0.43;;;8.50;99.90;;;;;;20578847;28;20046;-47
2022/03/17 06:53:34;;;;;;;7.25;1.13;;;8.50;99.90;;;;;;20583388;28;20054;-46
2022/03/17 07:03:35;;;;;;;3.20;0.32;;;8.60;99.90;;;;;;20585919;28;20046;-47
2022/03/17 07:13:36;;;;;;;4.25;1.02;;;8.60;99.90;;;;;;20601176;28;20042;-46
2022/03/17 07:23:37;;;;;;;1.27;0.30;;;8.50;99.90;;;;;;20582621;28;20042;-46
2022/03/17 07:33:38;;;;;;;1.52;0.82;;;8.50;99.90;;;;;;20596077;28;20057;-46
2022/03/17 07:43:41;;;;;;;2.33;0.10;;;8.50;99.90;;;;;;20583273;28;20525;-46
2022/03/17 07:53:42;;;;;;;2.85;0.60;;;8.70;99.90;;;;;;20586927;28;20061;-46
2022/03/17 08:03:44;;;;;;;6.03;0.50;;;8.70;99.90;;;;;;20573975;28;20034;-46
2022/03/17 08:13:45;;;;;;;2.35;0.38;;;8.80;99.90;;;;;;20556070;28;20050;-46
2022/03/17 08:23:46;;;;;;;1.10;0.20;;;8.70;99.90;;;;;;20529211;28;20499;-46
2022/03/17 08:33:47;;;;;;;2.83;0.57;;;8.70;99.90;;;;;;20557600;28;20338;-46
2022/03/17 08:43:48;;;;;;;3.60;1.33;;;8.60;99.90;;;;;;20561248;28;20601;-46
2022/03/17 08:53:50;;;;;;;6.82;2.05;;;8.60;99.90;;;;;;20569409;28;21074;-46
2022/03/17 09:03:53;;;;;;;2.72;0.28;;;8.80;99.90;;;;;;20571078;28;20414;-46
2022/03/17 09:13:55;;;;;;;1.73;0.68;;;9.20;99.90;;;;;;20586821;28;20051;-46
2022/03/17 09:23:58;;;;;;;1.05;0.30;;;9.50;99.90;;;;;;20584986;28;20061;-46
2022/03/17 09:33:59;;;;;;;2.83;1.05;;;9.90;99.90;;;;;;20589398;28;20043;-46
2022/03/17 09:44:02;;;;;;;1.08;0.28;;;10.10;99.90;;;;;;20583556;28;20744;-46
2022/03/17 09:54:03;;;;;;;3.33;0.50;;;10.50;99.90;;;;;;20577256;28;20050;-46
2022/03/17 10:04:07;;;;;;;1.35;0.50;;;10.50;99.90;;;;;;20573182;28;20418;-46
2022/03/17 10:14:09;;;;;;;2.35;0.32;;;10.60;99.90;;;;;;20541648;28;20491;-46
2022/03/17 10:24:10;;;;;;;1.67;0.47;;;10.80;99.90;;;;;;20528577;28;20030;-46
2022/03/17 10:34:11;;;;;;;3.47;0.80;;;11.10;99.90;;;;;;20555117;28;20059;-46
2022/03/17 10:44:15;;;;;;;1.42;0.43;;;11.70;99.90;;;;;;20565688;28;20578;-46
2022/03/17 10:54:20;;;;;;;1.02;0.47;;;12.10;99.90;;;;;;20579400;28;20065;-46
2022/03/17 11:04:22;;;;;;;2.38;0.60;;;12.20;99.90;;;;;;20580193;28;20046;-46
2022/03/17 11:14:24;;;;;;;2.67;0.70;;;12.00;99.90;;;;;;20513287;28;20504;-46
2022/03/17 11:24:25;;;;;;;5.15;1.00;;;12.50;99.90;;;;;;20584943;28;20043;-46
2022/03/17 11:34:39;;;;;;;1.88;0.45;;;12.80;99.90;;;;;;20581720;28;20046;-45
2022/03/17 11:44:40;;;;;;;3.97;1.02;;;13.20;99.90;;;;;;20582560;28;21470;-46
2022/03/17 11:54:42;;;;;;;1.92;0.70;;;13.50;99.90;;;;;;20591733;28;20514;-46
2022/03/17 12:04:48;;;;;;;1.63;0.45;;;13.60;99.90;;;;;;20591374;28;20619;-46
2022/03/17 12:14:58;;;;;;;7.05;0.77;;;13.70;99.90;;;;;;20563293;28;20050;-47
2022/03/17 12:25:20;;;;;;;0.85;0.30;;;13.80;99.90;;;;;;20552489;28;20117;-47
2022/03/17 12:35:28;;;;;;;1.38;0.22;;;14.20;99.90;;;;;;20515293;28;20065;-46
2022/03/17 12:45:29;;;;;;;0.90;0.30;;;14.10;99.90;;;;;;20529897;28;20039;-47
2022/03/17 12:55:31;;;;;;;1.63;0.88;;;14.30;99.90;;;;;;20526204;28;20058;-46
2022/03/17 13:15:52;;;;;;;1.13;0.43;;;15.10;99.90;;;;;;20556509;28;20057;-47
2022/03/17 13:25:58;;;;;;;1.63;0.55;;;15.50;99.90;;;;;;20566359;28;20030;-47
2022/03/17 13:36:00;;;;;;;1.95;0.38;;;15.90;99.80;;;;;;20574273;28;20052;-47
2022/03/17 13:46:18;;;;;;;0.30;0.10;;;16.00;99.70;;;;;;20578632;28;20101;-47
2022/03/17 13:56:27;;;;;;;3.53;0.40;;;15.90;99.10;;;;;;20605416;28;20054;-47
2022/03/17 14:06:34;;;;;;;1.10;0.30;;;16.80;97.80;;;;;;20594481;28;20046;-47
2022/03/17 14:16:37;;;;;;;;;;;16.90;94.50;;;;;;20572425;28;20049;-47
2022/03/17 14:26:42;;;;;;;1.55;0.20;;;16.70;94.80;;;;;;20556624;28;19922;-47
2022/03/17 14:36:45;;;;;;;3.47;0.70;;;16.80;94.80;;;;;;20571623;28;20077;-47
2022/03/17 14:46:46;;;;;;;3.30;0.20;;;15.70;96.10;;;;;;20570809;28;20051;-47
2022/03/17 14:56:49;;;;;;;0.90;0.40;;;15.70;96.40;;;;;;20574139;28;20050;-47
2022/03/17 15:06:50;;;;;;;1.35;0.10;;;15.00;96.40;;;;;;20597235;28;20062;-47
2022/03/17 15:16:51;;;;;;;3.78;0.30;;;14.30;96.80;;;;;;20529657;28;20042;-47
2022/03/17 15:26:53;;;;;;;2.90;0.20;;;13.80;97.90;;;;;;20584841;28;20442;-46
2022/03/17 15:36:54;;;;;;;2.38;0.50;;;13.40;97.50;;;;;;20509363;28;20054;-47
2022/03/17 15:46:55;;;;;;;1.48;0.13;;;13.20;98.00;;;;;;20518217;28;20050;-46
2022/03/17 15:56:56;;;;;;;0.80;0.13;;;12.70;99.10;;;;;;20517756;28;20064;-46
2022/03/17 16:06:59;;;;;;;1.35;0.40;;;12.70;97.70;;;;;;20619945;28;20034;-47
2022/03/17 16:17:04;;;;;;;2.03;0.50;;;12.20;99.70;;;;;;20625787;28;20042;-47
2022/03/17 16:27:05;;;;;;;0.90;0.40;;;11.90;99.90;;;;;;20655546;28;20040;-47
2022/03/17 16:37:07;;;;;;;0.68;0.20;;;11.70;99.90;;;;;;20642787;28;20433;-47
2022/03/17 16:47:08;;;;;;;2.38;0.40;;;11.40;99.90;;;;;;20654674;28;20710;-47
2022/03/17 16:57:12;;;;;;;2.88;0.60;;;11.20;99.90;;;;;;20647859;28;20430;-47
2022/03/17 17:07:14;;;;;;;1.85;0.40;;;11.10;99.90;;;;;;20634786;28;20372;-48
2022/03/17 17:17:16;;;;;;;2.15;0.65;;;10.90;99.90;;;;;;20636251;28;20078;-47
2022/03/17 17:37:56;;;;;;;4.03;0.60;;;10.50;99.90;;;;;;20518819;28;20388;-47
2022/03/17 17:47:58;;;;;;;2.10;0.60;;;10.40;99.90;;;;;;20608030;28;20629;-47
2022/03/17 17:58:00;;;;;;;2.35;0.68;;;10.20;99.90;;;;;;20612858;28;20134;-47
2022/03/17 18:08:02;;;;;;;1.92;0.50;;;9.90;99.90;;;;;;20622440;28;20042;-47
2022/03/17 18:18:04;;;;;;;0.98;0.40;;;9.90;99.90;;;;;;20619695;28;20064;-47
2022/03/17 18:28:05;;;;;;;1.88;0.77;;;9.60;99.90;;;;;;20592727;28;20495;-47
2022/03/17 18:38:08;;;;;;;2.63;0.68;;;9.20;99.90;;;;;;20616559;28;20050;-47
2022/03/17 18:48:09;;;;;;;3.47;0.60;;;9.00;99.90;;;;;;20612725;28;20669;-47
2022/03/17 18:58:10;;;;;;;4.25;0.93;;;8.90;99.90;;;;;;20621393;28;20049;-48
2022/03/17 19:08:11;;;;;;;2.50;1.10;;;8.70;99.90;;;;;;20581698;28;20045;-48
2022/03/17 19:18:12;;;;;;;3.35;1.20;;;8.30;99.90;;;;;;20600232;28;20046;-47
2022/03/17 19:28:15;;;;;;;6.72;1.15;;;8.10;99.90;;;;;;20590575;28;20038;-47
2022/03/17 19:38:18;;;;;;;2.53;1.08;;;8.00;99.90;;;;;;20600190;28;20411;-47
2022/03/17 19:48:19;;;;;;;28.40;7.10;;;8.00;99.90;;;;;;20582139;28;20042;-47
2022/03/17 19:58:20;;;;;;;26.67;7.35;;;7.80;99.90;;;;;;20581417;28;20047;-47
2022/03/17 20:08:21;;;;;;;12.70;3.92;;;7.80;99.90;;;;;;20585381;28;20070;-47
2022/03/17 20:18:22;;;;;;;12.35;2.50;;;7.60;99.90;;;;;;20583269;28;20518;-47
2022/03/17 20:28:25;;;;;;;6.82;2.33;;;7.50;99.90;;;;;;20579297;28;20042;-47
2022/03/17 20:38:27;;;;;;;4.78;1.88;;;7.20;99.90;;;;;;20594498;28;20047;-46
2022/03/17 20:48:29;;;;;;;3.50;1.58;;;7.10;99.90;;;;;;20562983;28;20043;-47
2022/03/17 20:58:30;;;;;;;6.97;1.67;;;7.00;99.90;;;;;;20601028;28;20038;-47
2022/03/17 21:08:31;;;;;;;3.92;1.52;;;7.00;99.90;;;;;;20586818;28;21576;-46
2022/03/17 21:18:33;;;;;;;5.38;1.50;;;6.80;99.90;;;;;;20591714;28;20633;-47
2022/03/17 21:28:34;;;;;;;5.40;1.52;;;6.60;99.90;;;;;;20592242;28;20441;-47
2022/03/17 21:38:36;;;;;;;3.53;1.27;;;6.50;99.90;;;;;;20594423;28;20051;-46
2022/03/17 21:48:38;;;;;;;6.95;1.83;;;6.40;99.90;;;;;;20587226;28;20046;-46
